Latest Weather Observations for Norfolk Island

IDN60801

Issued at 9:02 am EDT Tuesday 22 January 2019 (issued every 10 minutes, with the page automatically refreshed every 10 minutes)

About weather observations | Map of weather stations | Latest weather observations for NSW | Other Formats
Station Details ID: 200288 Name: NORFOLK ISLAND AERO Lat: -29.04 Lon: 167.94 Height: 111.73 m
Data from the previous 72 hours. | See also: Recent months at Norfolk Island
Date/Time
EDT
Temp
°C
App
Temp
°C
Dew
Point
°C
Rel
Hum
%
Delta-T
°C
Wind Press
QNH
hPa
Press
MSL
hPa
Rain since
9am
mm
Dir  Spd
km/h
Gust
km/h
Spd
kts
Gust
kts
22/09:00am 23.1 22.0 17.8 72 3.3 SSE 20 28 11 15 1019.0 1018.5 0.0
22/08:30am 23.9 22.7 17.6 68 3.9 SE 20 30 11 16 1018.8 1018.3 0.0
22/08:00am 22.9 21.7 17.4 71 3.4 SE 20 28 11 15 1018.9 1018.4 0.0
22/07:30am 22.8 22.0 17.9 74 3.1 SE 19 26 10 14 1018.7 1018.2 0.0
22/07:00am 22.5 22.1 18.1 76 2.8 SE 17 26 9 14 1018.4 1017.9 0.0
22/06:31am 22.1 21.8 18.3 79 2.4 SE 17 26 9 14 1018.2 1017.7 0.0
22/06:30am 22.0 21.7 18.2 79 2.4 SE 17 26 9 14 1018.2 1017.7 0.0
22/06:00am 21.6 21.4 18.6 83 1.9 SE 17 26 9 14 1018.1 1017.6 0.0
22/05:30am 21.6 21.6 19.0 85 1.6 SE 17 24 9 13 1017.9 1017.4 0.0
22/05:00am 21.8 22.4 19.5 87 1.5 SE 15 24 8 13 1017.9 1017.4 0.0
22/04:30am 21.8 22.9 19.7 88 1.3 SE 13 19 7 10 1017.7 1017.2 0.0
22/04:00am 21.8 22.2 19.9 89 1.2 SE 17 26 9 14 1017.6 1017.1 0.0
22/03:32am 22.0 22.6 20.3 90 1.1 SE 17 26 9 14 1017.3 1016.8 0.0
22/03:30am 22.1 23.2 20.4 90 1.1 SE 15 24 8 13 1017.3 1016.8 0.0
22/03:12am 22.2 23.3 20.5 90 1.1 SE 15 22 8 12 1017.2 1016.7 0.0
22/03:00am 22.1 22.8 20.4 90 1.1 SE 17 22 9 12 1017.2 1016.7 0.0
22/02:45am 22.2 23.4 20.7 91 1.0 SE 15 22 8 12 1017.1 1016.6 0.0
22/02:31am 22.0 23.9 20.5 91 1.0 SE 11 13 6 7 1017.2 1016.7 0.0
22/02:30am 22.0 23.9 20.5 91 1.0 SE 11 13 6 7 1017.2 1016.7 0.0
22/02:00am 22.2 24.6 20.8 92 0.9 SE 9 15 5 8 1017.4 1016.9 0.0
22/01:51am 22.2 24.2 20.8 92 0.9 S 11 15 6 8 1017.5 1017.0 0.0
22/01:50am 22.2 24.2 20.8 92 0.9 S 11 15 6 8 1017.5 1017.0 0.0
22/01:34am 22.1 24.8 20.7 92 0.9 SSE 7 9 4 5 1017.5 1017.0 0.0
22/01:30am 22.1 24.8 20.7 92 0.9 SSE 7 9 4 5 1017.5 1017.0 0.0
22/01:00am 22.4 24.4 20.7 90 1.1 S 11 15 6 8 1017.6 1017.1 0.0
22/12:30am 22.6 26.3 19.9 85 1.7 CALM 0 0 0 0 1017.8 1017.3 0.0
22/12:00am 22.6 25.1 19.9 85 1.7 SE 6 7 3 4 1017.9 1017.4 0.0
 
Date/Time
EDT
Temp
°C
App
Temp
°C
Dew
Point
°C
Rel
Hum
%
Delta-T
°C
Wind Press
QNH
hPa
Press
MSL
hPa
Rain since
9am
mm
Dir  Spd
km/h
Gust
km/h
Spd
kts
Gust
kts
21/11:30pm 22.6 25.1 19.9 85 1.7 ESE 6 7 3 4 1018.1 1017.6 0.0
21/11:00pm 22.6 25.1 19.9 85 1.7 ESE 6 7 3 4 1018.3 1017.8 0.0
21/10:30pm 22.6 24.9 19.8 84 1.8 ESE 7 9 4 5 1018.5 1018.0 0.0
21/10:00pm 22.4 24.7 19.8 85 1.7 ESE 7 9 4 5 1018.4 1017.9 0.0
21/09:30pm 22.3 24.5 19.7 85 1.7 ESE 7 9 4 5 1018.2 1017.7 0.0
21/09:00pm 22.1 24.4 19.5 85 1.7 ESE 6 9 3 5 1018.2 1017.7 0.0
21/08:30pm 21.9 23.9 19.1 84 1.8 ESE 7 7 4 4 1017.8 1017.3 0.0
21/08:00pm 22.0 24.0 19.2 84 1.8 ESE 7 9 4 5 1017.6 1017.1 0.0
21/07:30pm 22.2 23.8 19.2 83 1.9 ESE 9 13 5 7 1017.2 1016.7 0.0
21/07:00pm 22.5 23.2 18.9 80 2.3 SE 13 15 7 8 1017.1 1016.6 0.0
21/06:30pm 23.0 23.4 19.0 78 2.5 SSE 15 19 8 10 1017.0 1016.5 0.0
21/06:00pm 23.2 23.6 18.9 77 2.7 SSE 15 19 8 10 1016.8 1016.3 0.0
21/05:30pm 23.6 23.4 18.5 73 3.2 SSE 17 22 9 12 1016.6 1016.1 0.0
21/05:00pm 23.8 23.6 18.4 72 3.4 SSE 17 24 9 13 1016.5 1016.0 0.0
21/04:30pm 23.6 22.9 18.3 72 3.3 S 19 26 10 14 1016.5 1016.0 0.0
21/04:00pm 24.0 24.0 18.9 73 3.3 S 17 24 9 13 1016.5 1016.0 0.0
21/03:30pm 24.5 24.4 18.7 70 3.7 SSE 17 24 9 13 1016.7 1016.2 0.0
21/03:00pm 24.8 25.0 18.5 68 4.0 SE 15 20 8 11 1016.7 1016.2 0.0
21/02:30pm 25.2 25.4 19.3 70 3.8 SE 17 22 9 12 1017.0 1016.5 0.0
21/02:00pm 25.4 25.3 18.8 67 4.2 S 17 28 9 15 1017.2 1016.7 0.0
21/01:30pm 25.1 24.5 18.5 67 4.2 SE 19 26 10 14 1017.4 1016.9 0.0
21/01:00pm 24.9 23.5 18.8 69 3.9 S 24 32 13 17 1017.4 1016.9 0.0
21/12:30pm 25.1 24.1 17.6 63 4.7 SE 19 26 10 14 1017.5 1017.0 0.0
21/12:00pm 25.9 25.4 17.8 61 5.1 SE 17 26 9 14 1017.7 1017.2 0.0
21/11:30am 25.5 24.4 17.4 61 5.1 SSE 19 26 10 14 1017.8 1017.3 0.0
21/11:00am 25.0 24.5 19.1 70 3.8 SSE 20 26 11 14 1017.8 1017.3 0.0
21/10:30am 24.7 24.3 18.9 70 3.7 SE 19 26 10 14 1017.7 1017.2 0.0
21/10:00am 24.6 25.0 19.0 71 3.6 SE 15 24 8 13 1017.6 1017.1 0.0
21/09:30am 24.2 24.7 19.3 74 3.1 S 15 22 8 12 1017.7 1017.2 0.0
21/09:00am 24.7 25.3 19.5 73 3.4 SE 15 20 8 11 1017.8 1017.3 0.0
21/08:30am 23.8 24.6 19.1 75 3.0 SE 13 19 7 10 1017.8 1017.3 0.0
21/08:00am 23.7 25.1 19.6 78 2.6 SE 11 17 6 9 1017.7 1017.2 0.0
21/07:30am 22.6 23.5 19.2 81 2.2 SE 13 15 7 8 1017.7 1017.2 0.0
21/07:00am 22.3 23.5 19.1 82 2.0 SE 11 15 6 8 1017.7 1017.2 0.0
21/06:54am 22.3 24.0 19.3 83 1.9 SE 9 15 5 8 1017.7 1017.2 0.0
21/06:30am 22.3 23.7 19.5 84 1.8 SE 11 15 6 8 1017.4 1016.9 0.0
21/06:00am 21.6 23.8 19.7 89 1.2 SE 7 11 4 6 1017.3 1016.8 0.0
21/05:30am 20.2 22.8 18.5 90 1.1 E 2 6 1 3 1017.2 1016.7 0.0
21/05:00am 20.6 22.5 18.9 90 1.1 ESE 7 9 4 5 1017.1 1016.6 0.0
21/04:30am 20.4 22.2 18.7 90 1.1 E 7 9 4 5 1016.9 1016.4 0.0
21/04:00am 20.3 22.0 18.6 90 1.1 E 7 7 4 4 1016.7 1016.2 0.0
21/03:30am 20.4 22.2 18.7 90 1.1 E 7 7 4 4 1016.7 1016.2 0.0
21/03:00am 20.5 22.4 18.6 89 1.2 E 6 7 3 4 1016.7 1016.2 0.0
21/02:30am 20.7 22.4 18.5 87 1.4 ESE 7 9 4 5 1016.8 1016.3 0.0
21/02:00am 21.0 22.5 18.8 87 1.4 ESE 9 11 5 6 1017.1 1016.6 0.0
21/01:30am 21.1 22.5 18.7 86 1.5 ESE 9 11 5 6 1017.3 1016.8 0.0
21/01:00am 21.1 22.8 18.5 85 1.6 ESE 7 11 4 6 1017.4 1016.9 0.0
21/12:30am 21.5 23.0 18.9 85 1.6 ESE 9 11 5 6 1017.7 1017.2 0.0
21/12:00am 21.6 23.1 19.0 85 1.6 ESE 9 15 5 8 1017.9 1017.4 0.0
 
Date/Time
EDT
Temp
°C
App
Temp
°C
Dew
Point
°C
Rel
Hum
%
Delta-T
°C
Wind Press
QNH
hPa
Press
MSL
hPa
Rain since
9am
mm
Dir  Spd
km/h
Gust
km/h
Spd
kts
Gust
kts
20/11:30pm 21.7 23.2 18.9 84 1.8 E 9 15 5 8 1018.1 1017.6 0.0
20/11:00pm 21.4 22.8 18.6 84 1.8 ESE 9 13 5 7 1018.3 1017.8 0.0
20/10:30pm 21.5 22.9 18.7 84 1.8 ESE 9 15 5 8 1018.5 1018.0 0.0
20/10:00pm 21.4 22.7 18.4 83 1.9 ESE 9 11 5 6 1018.7 1018.2 0.0
20/09:30pm 21.5 22.6 18.1 81 2.1 ESE 9 13 5 7 1018.8 1018.3 0.0
20/09:00pm 21.3 22.3 17.7 80 2.2 ESE 9 13 5 7 1018.6 1018.1 0.0
20/08:30pm 21.3 22.2 17.5 79 2.4 ESE 9 13 5 7 1018.4 1017.9 0.0
20/08:00pm 21.6 22.5 17.6 78 2.5 ESE 9 11 5 6 1018.4 1017.9 0.0
20/07:30pm 21.7 22.7 17.7 78 2.5 ESE 9 15 5 8 1018.2 1017.7 0.0
20/07:00pm 22.0 23.0 17.8 77 2.6 ESE 9 13 5 7 1018.0 1017.5 0.0
20/06:30pm 22.5 22.9 18.1 76 2.8 SE 13 19 7 10 1017.7 1017.2 0.0
20/06:00pm 23.2 23.3 18.3 74 3.1 SE 15 19 8 10 1017.4 1016.9 0.0
20/05:30pm 23.3 22.8 17.7 71 3.5 SE 17 22 9 12 1017.3 1016.8 0.0
20/05:00pm 23.8 23.0 18.0 70 3.6 SE 19 26 10 14 1017.1 1016.6 0.0
20/04:30pm 24.2 23.5 18.2 69 3.8 SE 19 26 10 14 1017.1 1016.6 0.0
20/04:00pm 25.0 24.2 18.4 66 4.2 SSE 20 30 11 16 1017.3 1016.8 0.0
20/03:30pm 24.2 23.5 18.2 69 3.8 SE 19 26 10 14 1017.6 1017.1 0.0
20/03:00pm 25.0 24.2 18.4 66 4.2 SSE 20 28 11 15 1017.8 1017.3 0.0
20/02:30pm 25.5 24.9 18.4 65 4.5 SE 19 28 10 15 1018.1 1017.6 0.0
20/02:00pm 25.3 24.6 18.7 67 4.2 SE 20 28 11 15 1018.2 1017.7 0.0
20/01:30pm 24.3 23.4 18.2 68 3.9 SSE 20 30 11 16 1018.1 1017.6 0.0
20/01:00pm 25.5 24.5 17.9 63 4.8 SE 20 35 11 19 1018.1 1017.6 0.0
20/12:30pm 24.8 24.0 18.0 66 4.3 SE 19 26 10 14 1018.2 1017.7 0.0
20/12:00pm 24.8 23.8 17.5 64 4.6 SE 19 26 10 14 1018.4 1017.9 0.0
20/11:30am 26.2 25.2 17.6 59 5.4 E 19 26 10 14 1018.4 1017.9 0.0
20/11:00am 25.0 24.8 17.5 63 4.7 ESE 15 22 8 12 1018.3 1017.8 0.0
20/10:30am 25.1 25.1 17.3 62 4.9 ESE 13 20 7 11 1018.3 1017.8 0.0
20/10:00am 24.8 24.1 16.5 60 5.1 ESE 15 22 8 12 1018.5 1018.0 0.0
20/09:30am 25.1 24.0 16.3 58 5.4 E 17 24 9 13 1018.6 1018.1 0.0
20/09:00am 23.9 23.5 18.1 70 3.6 ESE 17 26 9 14 1018.7 1018.2 0.0
20/08:30am 23.2 22.9 17.4 70 3.6 ESE 15 20 8 11 1018.8 1018.3 0.0
20/08:00am 22.8 22.7 17.9 74 3.1 SE 15 20 8 11 1018.8 1018.3 0.0
20/07:30am 23.2 23.3 18.3 74 3.1 SE 15 24 8 13 1018.8 1018.3 0.0
20/07:00am 23.1 23.4 17.8 72 3.3 ESE 13 17 7 9 1018.6 1018.1 0.0
20/06:30am 22.4 22.8 18.2 77 2.6 ESE 13 19 7 10 1018.3 1017.8 0.0
20/06:00am 21.4 22.9 18.0 81 2.1 ESE 7 13 4 7 1018.0 1017.5 0.0
20/05:30am 20.3 21.1 17.3 83 1.8 E 9 11 5 6 1017.5 1017.0 0.0
20/05:00am 20.2 21.0 17.4 84 1.7 E 9 13 5 7 1017.4 1016.9 0.0
20/04:30am 21.3 22.1 18.1 82 2.0 E 11 15 6 8 1017.0 1016.5 0.0
20/04:00am 21.1 22.2 17.9 82 2.0 ESE 9 15 5 8 1017.0 1016.5 0.0
20/03:30am 20.9 21.5 17.7 82 2.0 E 11 15 6 8 1016.9 1016.4 0.0
20/03:00am 21.2 21.8 17.6 80 2.2 E 11 15 6 8 1017.0 1016.5 0.0
20/02:30am 20.6 21.5 17.6 83 1.9 E 9 13 5 7 1016.9 1016.4 0.0
20/02:00am 20.7 20.8 17.5 82 2.0 E 13 19 7 10 1017.2 1016.7 0.0
20/01:30am 20.9 21.0 17.5 81 2.1 ESE 13 19 7 10 1017.2 1016.7 0.0
20/01:00am 20.6 21.9 17.6 83 1.9 SE 7 11 4 6 1017.6 1017.1 0.0
20/12:30am 19.8 19.7 17.0 84 1.7 E 13 15 7 8 1017.3 1016.8 0.0
20/12:00am 20.3 20.6 17.1 82 2.0 E 11 13 6 7 1017.6 1017.1 0.0
 
Date/Time
EDT
Temp
°C
App
Temp
°C
Dew
Point
°C
Rel
Hum
%
Delta-T
°C
Wind Press
QNH
hPa
Press
MSL
hPa
Rain since
9am
mm
Dir  Spd
km/h
Gust
km/h
Spd
kts
Gust
kts
19/11:30pm 21.3 21.7 17.3 78 2.5 ESE 11 15 6 8 1018.3 1017.8 0.0
19/11:00pm 21.2 21.6 17.2 78 2.5 ESE 11 17 6 9 1018.5 1018.0 0.0
19/10:30pm 21.3 21.3 17.3 78 2.5 ESE 13 19 7 10 1018.7 1018.2 0.0
19/10:00pm 21.0 21.0 17.2 79 2.3 ESE 13 17 7 9 1018.7 1018.2 0.0
19/09:30pm 21.0 21.0 17.2 79 2.3 ESE 13 17 7 9 1018.7 1018.2 0.0
19/09:00pm 21.0 21.0 17.2 79 2.3 E 13 17 7 9 1018.5 1018.0 0.0
19/08:30pm 20.9 20.9 17.1 79 2.3 ESE 13 17 7 9 1018.6 1018.1 0.0
19/08:00pm 20.6 20.1 16.8 79 2.3 E 15 19 8 10 1017.8 1017.3 0.0
19/07:30pm 20.9 20.8 16.9 78 2.4 E 13 15 7 8 1017.8 1017.3 0.0
19/07:00pm 21.2 21.0 16.6 75 2.8 E 13 19 7 10 1017.7 1017.2 0.0
19/06:30pm 21.8 21.1 16.5 72 3.2 ESE 15 24 8 13 1017.3 1016.8 0.0
19/06:00pm 22.2 21.5 16.5 70 3.5 SE 15 22 8 12 1017.4 1016.9 0.0
19/05:30pm 22.7 21.6 17.2 71 3.4 SE 19 26 10 14 1017.2 1016.7 0.0
19/05:00pm 22.9 21.9 16.7 68 3.8 SE 17 26 9 14 1017.1 1016.6 0.0
19/04:30pm 22.9 21.5 17.1 70 3.6 SE 20 28 11 15 1017.2 1016.7 0.0
19/04:00pm 23.7 22.4 16.7 65 4.3 SE 19 30 10 16 1017.5 1017.0 0.0
19/03:30pm 22.9 21.1 16.9 69 3.7 SSE 22 30 12 16 1017.6 1017.1 0.0
19/03:00pm 25.0 23.7 17.2 62 4.9 SSE 20 32 11 17 1017.7 1017.2 0.0
19/02:30pm 24.3 22.2 17.1 64 4.5 SSE 24 30 13 16 1018.0 1017.5 0.0
19/02:00pm 24.5 22.7 17.0 63 4.6 SSE 22 30 12 16 1018.5 1018.0 0.0
19/01:30pm 24.5 22.1 16.5 61 4.9 SSE 24 35 13 19 1018.8 1018.3 0.0
19/01:00pm 24.2 22.5 16.2 61 4.9 SSE 20 33 11 18 1018.5 1018.0 0.0
19/12:30pm 24.6 23.3 16.8 62 4.8 ESE 19 28 10 15 1018.6 1018.1 0.0
19/12:00pm 24.0 21.9 15.2 58 5.3 SE 20 30 11 16 1019.1 1018.6 0.0
19/11:30am 24.1 21.9 15.9 60 5.0 SSE 22 28 12 15 1019.1 1018.6 0.0
19/11:00am 23.8 21.9 15.8 61 4.8 SE 20 28 11 15 1019.1 1018.6 0.0
19/10:30am 23.7 22.3 15.5 60 5.0 SSE 17 26 9 14 1019.0 1018.5 0.0
19/10:00am 23.8 21.9 15.3 59 5.1 SE 19 26 10 14 1019.1 1018.6 0.0
19/09:30am 23.3 21.9 14.6 58 5.2 SE 15 26 8 14 1019.1 1018.6 0.0
19/09:00am 23.3 21.2 14.8 59 5.1 SSE 19 28 10 15 1019.3 1018.8 0.0

Other Formats:

Comma delimited format used in spreadsheet applications
http://www.bom.gov.au/fwo/IDN60801/IDN60801.94996.axf

JavaScript Object Notation format (JSON) in row-major order
http://www.bom.gov.au/fwo/IDN60801/IDN60801.94996.json